Airfield :
LOGIN :

Register | Disclaimer

   EN    FR    IT 

 










Legend :    VFR   Marginal VFR   IFR   Intensive IFR   Very Intensive IFR
Visi :
Ceiling :
>= 8 km
>= 3000ft
5 to 8 km
1000 to 3000 ft
1500m to 5 km
500 to 1000 ft
800 to 1500m
200 to 500 ft
< 800m
< 200 ft
Symbols :   Thunderstorms  Fog  Heavy snow  Heavy precipitations  Wind > 20 kt
SIGMETs :     Misc.  Thunderstorms  Icing  Turbulence  Mountain Waves  Volcanic Ashes







- Airport Elevation : 183 ft
- IATA code : HAJ


EDDV - Hanover/Langenhagen Int.

CURRENT METAR :
  • 202220Z 10014KT 8000 BKN010 01/M01 Q1015

EXPIRED METARs :
  • 202150Z 10013KT 9999 BKN010 01/M01 Q1015
  • 202120Z 10016KT 9999 BKN010 01/M00 Q1015
  • 202050Z 09017KT 9999 BKN012 01/M01 Q1015 TEMPO 10015G25KT BKN008
  • 202020Z 09016KT 9000 BKN012 01/M00 Q1014 TEMPO BKN008
  • 201950Z 09015KT 9000 BKN012 01/M00 Q1014 TEMPO BKN008
  • 201920Z 09016KT 9000 BKN011 BKN037 01/M00 Q1014 TEMPO 10015G25KT BKN008

TAF TAF EDDV
Valid from the 20 at 18:00 until the 21 at 18:00 UTC


201700Z 2018/2118 09012KT 9999 BKN015
BECMG 2018/2020 BKN010
TEMPO 2018/2021 10015G25KT 4500 -SNRA BKN006
TEMPO 2021/2108 BKN008
BECMG 2109/2111 BKN020
No reported NOTAMs for that airfield.



MET'MAP, your aeronautical weather chart ! - Copyright ORBIFLY December 2007 - Disclaimer

ORBIFLY MET'MAP TEAM :

Programming & Development : Alexandra Zaïnal
Concept & Development : Baudouin d'Aumeries
Co-Development & Prog : Marc-Olivier Méhu
Technical & hardware support : Manuel Goepfert

Contact : metmap@orbifly.com




SOURCES & CREDITS :

   NOAA